sensor_id;sensor_type;location;lat;lon;timestamp;P1;durP1;ratioP1;P2;durP2;ratioP2
52618;SDS011;38513;53.234;6.568;2023-06-05T00:00:32;8.68;;;4.97;;
52618;SDS011;38513;53.234;6.568;2023-06-05T00:02:58;9.57;;;5.20;;
52618;SDS011;38513;53.234;6.568;2023-06-05T00:05:24;9.15;;;5.20;;
52618;SDS011;38513;53.234;6.568;2023-06-05T00:07:51;8.95;;;5.32;;
52618;SDS011;38513;53.234;6.568;2023-06-05T00:10:18;9.93;;;5.20;;
52618;SDS011;38513;53.234;6.568;2023-06-05T00:12:44;9.20;;;5.32;;
52618;SDS011;38513;53.234;6.568;2023-06-05T00:15:13;14.02;;;5.47;;
52618;SDS011;38513;53.234;6.568;2023-06-05T00:17:39;10.18;;;5.35;;
52618;SDS011;38513;53.234;6.568;2023-06-05T00:20:05;10.50;;;5.82;;
52618;SDS011;38513;53.234;6.568;2023-06-05T00:22:34;9.77;;;5.18;;
52618;SDS011;38513;53.234;6.568;2023-06-05T00:25:01;9.13;;;6.05;;
52618;SDS011;38513;53.234;6.568;2023-06-05T00:27:27;9.50;;;5.38;;
52618;SDS011;38513;53.234;6.568;2023-06-05T00:29:54;9.70;;;5.68;;
52618;SDS011;38513;53.234;6.568;2023-06-05T00:32:20;9.48;;;5.70;;
52618;SDS011;38513;53.234;6.568;2023-06-05T00:34:46;9.83;;;5.87;;
52618;SDS011;38513;53.234;6.568;2023-06-05T00:37:19;8.48;;;5.40;;
52618;SDS011;38513;53.234;6.568;2023-06-05T00:39:48;9.52;;;6.00;;
52618;SDS011;38513;53.234;6.568;2023-06-05T00:42:14;9.50;;;6.00;;
52618;SDS011;38513;53.234;6.568;2023-06-05T00:44:41;10.40;;;5.90;;
52618;SDS011;38513;53.234;6.568;2023-06-05T00:47:07;9.82;;;5.55;;
52618;SDS011;38513;53.234;6.568;2023-06-05T00:49:36;10.27;;;5.53;;
52618;SDS011;38513;53.234;6.568;2023-06-05T00:52:02;9.63;;;5.28;;
52618;SDS011;38513;53.234;6.568;2023-06-05T00:54:31;10.02;;;5.40;;
52618;SDS011;38513;53.234;6.568;2023-06-05T00:56:58;10.32;;;5.50;;
52618;SDS011;38513;53.234;6.568;2023-06-05T00:59:24;9.40;;;5.50;;
52618;SDS011;38513;53.234;6.568;2023-06-05T01:01:51;9.95;;;5.32;;
52618;SDS011;38513;53.234;6.568;2023-06-05T01:04:19;9.98;;;5.88;;
52618;SDS011;38513;53.234;6.568;2023-06-05T01:06:45;9.27;;;5.57;;
52618;SDS011;38513;53.234;6.568;2023-06-05T01:09:11;11.10;;;6.00;;
52618;SDS011;38513;53.234;6.568;2023-06-05T01:11:41;12.30;;;5.65;;
52618;SDS011;38513;53.234;6.568;2023-06-05T01:14:19;11.40;;;5.70;;
52618;SDS011;38513;53.234;6.568;2023-06-05T01:16:51;9.63;;;5.57;;
52618;SDS011;38513;53.234;6.568;2023-06-05T01:19:18;10.70;;;6.07;;
52618;SDS011;38513;53.234;6.568;2023-06-05T01:21:45;11.38;;;6.28;;
52618;SDS011;38513;53.234;6.568;2023-06-05T01:24:12;12.35;;;5.97;;
52618;SDS011;38513;53.234;6.568;2023-06-05T01:32:19;9.85;;;5.82;;
52618;SDS011;38513;53.234;6.568;2023-06-05T01:34:47;12.10;;;5.97;;
52618;SDS011;38513;53.234;6.568;2023-06-05T01:37:13;10.10;;;6.37;;
52618;SDS011;38513;53.234;6.568;2023-06-05T01:39:43;11.18;;;6.60;;
52618;SDS011;38513;53.234;6.568;2023-06-05T01:42:10;10.70;;;6.55;;
52618;SDS011;38513;53.234;6.568;2023-06-05T01:44:39;12.27;;;7.00;;
52618;SDS011;38513;53.234;6.568;2023-06-05T01:47:06;12.10;;;6.78;;
52618;SDS011;38513;53.234;6.568;2023-06-05T01:49:33;13.20;;;6.78;;
52618;SDS011;38513;53.234;6.568;2023-06-05T01:51:59;11.25;;;6.70;;
52618;SDS011;38513;53.234;6.568;2023-06-05T01:54:25;10.45;;;6.72;;
52618;SDS011;38513;53.234;6.568;2023-06-05T01:56:51;13.60;;;7.22;;
52618;SDS011;38513;53.234;6.568;2023-06-05T01:59:18;12.63;;;7.38;;
52618;SDS011;38513;53.234;6.568;2023-06-05T02:01:44;12.23;;;7.35;;
52618;SDS011;38513;53.234;6.568;2023-06-05T02:04:10;12.95;;;7.70;;
52618;SDS011;38513;53.234;6.568;2023-06-05T02:06:44;14.05;;;7.80;;
52618;SDS011;38513;53.234;6.568;2023-06-05T02:09:14;14.32;;;7.60;;
52618;SDS011;38513;53.234;6.568;2023-06-05T02:11:43;13.63;;;7.82;;
52618;SDS011;38513;53.234;6.568;2023-06-05T02:14:11;12.02;;;7.47;;
52618;SDS011;38513;53.234;6.568;2023-06-05T02:16:41;12.03;;;7.80;;
52618;SDS011;38513;53.234;6.568;2023-06-05T02:19:08;12.45;;;7.43;;
52618;SDS011;38513;53.234;6.568;2023-06-05T02:21:36;12.07;;;7.63;;
52618;SDS011;38513;53.234;6.568;2023-06-05T02:24:02;12.45;;;7.55;;
52618;SDS011;38513;53.234;6.568;2023-06-05T02:26:28;13.57;;;8.13;;
52618;SDS011;38513;53.234;6.568;2023-06-05T02:28:55;12.25;;;7.70;;
52618;SDS011;38513;53.234;6.568;2023-06-05T02:31:24;12.02;;;8.00;;
52618;SDS011;38513;53.234;6.568;2023-06-05T02:33:54;13.00;;;7.45;;
52618;SDS011;38513;53.234;6.568;2023-06-05T02:39:21;12.73;;;8.02;;
52618;SDS011;38513;53.234;6.568;2023-06-05T02:41:47;11.55;;;7.30;;
52618;SDS011;38513;53.234;6.568;2023-06-05T02:44:13;12.35;;;7.60;;
52618;SDS011;38513;53.234;6.568;2023-06-05T02:46:39;12.35;;;7.28;;
52618;SDS011;38513;53.234;6.568;2023-06-05T02:49:05;12.17;;;6.83;;
52618;SDS011;38513;53.234;6.568;2023-06-05T02:51:31;11.38;;;7.22;;
52618;SDS011;38513;53.234;6.568;2023-06-05T02:53:58;10.75;;;6.70;;
52618;SDS011;38513;53.234;6.568;2023-06-05T02:56:24;10.60;;;6.20;;
52618;SDS011;38513;53.234;6.568;2023-06-05T02:58:52;10.98;;;6.18;;
52618;SDS011;38513;53.234;6.568;2023-06-05T03:01:18;10.13;;;6.18;;
52618;SDS011;38513;53.234;6.568;2023-06-05T03:03:46;9.75;;;5.97;;
52618;SDS011;38513;53.234;6.568;2023-06-05T03:06:13;9.45;;;5.93;;
52618;SDS011;38513;53.234;6.568;2023-06-05T03:08:42;12.02;;;6.47;;
52618;SDS011;38513;53.234;6.568;2023-06-05T03:11:08;11.00;;;6.38;;
52618;SDS011;38513;53.234;6.568;2023-06-05T03:13:35;11.38;;;6.53;;
52618;SDS011;38513;53.234;6.568;2023-06-05T03:16:01;9.85;;;6.00;;
52618;SDS011;38513;53.234;6.568;2023-06-05T03:18:27;9.93;;;6.53;;
52618;SDS011;38513;53.234;6.568;2023-06-05T03:20:54;9.45;;;6.10;;
52618;SDS011;38513;53.234;6.568;2023-06-05T03:23:24;10.05;;;6.20;;
52618;SDS011;38513;53.234;6.568;2023-06-05T03:25:52;10.52;;;6.28;;
52618;SDS011;38513;53.234;6.568;2023-06-05T03:28:19;9.43;;;5.93;;
52618;SDS011;38513;53.234;6.568;2023-06-05T03:30:45;12.30;;;6.55;;
52618;SDS011;38513;53.234;6.568;2023-06-05T03:33:11;9.63;;;6.18;;
52618;SDS011;38513;53.234;6.568;2023-06-05T03:35:39;11.20;;;6.57;;
52618;SDS011;38513;53.234;6.568;2023-06-05T03:38:06;11.15;;;6.35;;
52618;SDS011;38513;53.234;6.568;2023-06-05T03:40:32;10.10;;;5.80;;
52618;SDS011;38513;53.234;6.568;2023-06-05T03:42:58;9.70;;;5.95;;
52618;SDS011;38513;53.234;6.568;2023-06-05T03:45:24;9.82;;;5.90;;
52618;SDS011;38513;53.234;6.568;2023-06-05T03:47:52;11.40;;;6.30;;
52618;SDS011;38513;53.234;6.568;2023-06-05T03:50:19;10.18;;;6.10;;
52618;SDS011;38513;53.234;6.568;2023-06-05T03:52:46;9.77;;;6.00;;
52618;SDS011;38513;53.234;6.568;2023-06-05T03:55:20;11.27;;;5.90;;
52618;SDS011;38513;53.234;6.568;2023-06-05T03:57:47;9.23;;;6.00;;
52618;SDS011;38513;53.234;6.568;2023-06-05T04:00:13;10.15;;;5.90;;
52618;SDS011;38513;53.234;6.568;2023-06-05T04:02:41;10.57;;;5.95;;
52618;SDS011;38513;53.234;6.568;2023-06-05T04:05:07;10.52;;;6.13;;
52618;SDS011;38513;53.234;6.568;2023-06-05T04:07:37;12.48;;;6.05;;
52618;SDS011;38513;53.234;6.568;2023-06-05T04:10:05;10.03;;;5.70;;
52618;SDS011;38513;53.234;6.568;2023-06-05T04:12:31;11.02;;;6.72;;
52618;SDS011;38513;53.234;6.568;2023-06-05T04:14:57;10.00;;;6.32;;
52618;SDS011;38513;53.234;6.568;2023-06-05T04:17:24;9.95;;;6.28;;
52618;SDS011;38513;53.234;6.568;2023-06-05T04:19:50;9.98;;;6.00;;
52618;SDS011;38513;53.234;6.568;2023-06-05T04:22:17;11.23;;;6.75;;
52618;SDS011;38513;53.234;6.568;2023-06-05T04:24:43;11.02;;;6.30;;
52618;SDS011;38513;53.234;6.568;2023-06-05T04:27:09;10.38;;;6.03;;
52618;SDS011;38513;53.234;6.568;2023-06-05T04:29:35;10.32;;;5.70;;
52618;SDS011;38513;53.234;6.568;2023-06-05T04:32:02;8.20;;;5.20;;
52618;SDS011;38513;53.234;6.568;2023-06-05T04:34:28;7.40;;;4.30;;
52618;SDS011;38513;53.234;6.568;2023-06-05T04:36:54;7.93;;;4.68;;
52618;SDS011;38513;53.234;6.568;2023-06-05T04:39:21;7.80;;;4.47;;
52618;SDS011;38513;53.234;6.568;2023-06-05T04:41:48;8.02;;;4.60;;
52618;SDS011;38513;53.234;6.568;2023-06-05T04:44:15;7.50;;;3.90;;
52618;SDS011;38513;53.234;6.568;2023-06-05T04:46:42;8.05;;;4.45;;
52618;SDS011;38513;53.234;6.568;2023-06-05T04:49:09;7.50;;;4.18;;
52618;SDS011;38513;53.234;6.568;2023-06-05T04:51:36;7.53;;;4.00;;
52618;SDS011;38513;53.234;6.568;2023-06-05T04:54:02;8.13;;;4.20;;
52618;SDS011;38513;53.234;6.568;2023-06-05T04:56:28;8.67;;;4.13;;
52618;SDS011;38513;53.234;6.568;2023-06-05T04:58:57;8.98;;;4.30;;
52618;SDS011;38513;53.234;6.568;2023-06-05T05:01:29;7.43;;;4.30;;
52618;SDS011;38513;53.234;6.568;2023-06-05T05:03:56;6.50;;;3.95;;
52618;SDS011;38513;53.234;6.568;2023-06-05T05:06:22;7.18;;;4.20;;
52618;SDS011;38513;53.234;6.568;2023-06-05T05:08:48;7.03;;;3.75;;
52618;SDS011;38513;53.234;6.568;2023-06-05T05:11:14;6.57;;;3.80;;
52618;SDS011;38513;53.234;6.568;2023-06-05T05:13:43;7.43;;;3.88;;
52618;SDS011;38513;53.234;6.568;2023-06-05T05:16:09;6.57;;;3.20;;
52618;SDS011;38513;53.234;6.568;2023-06-05T05:18:37;6.82;;;3.45;;
52618;SDS011;38513;53.234;6.568;2023-06-05T05:21:03;7.80;;;3.50;;
52618;SDS011;38513;53.234;6.568;2023-06-05T05:23:34;7.05;;;3.75;;
52618;SDS011;38513;53.234;6.568;2023-06-05T05:26:00;7.80;;;3.55;;
52618;SDS011;38513;53.234;6.568;2023-06-05T05:28:26;7.18;;;3.50;;
52618;SDS011;38513;53.234;6.568;2023-06-05T05:30:53;7.20;;;3.50;;
52618;SDS011;38513;53.234;6.568;2023-06-05T05:33:21;6.50;;;3.55;;
52618;SDS011;38513;53.234;6.568;2023-06-05T05:35:47;8.40;;;3.55;;
52618;SDS011;38513;53.234;6.568;2023-06-05T05:38:14;6.78;;;3.40;;
52618;SDS011;38513;53.234;6.568;2023-06-05T05:40:41;8.68;;;3.55;;
52618;SDS011;38513;53.234;6.568;2023-06-05T05:43:07;7.45;;;3.45;;
52618;SDS011;38513;53.234;6.568;2023-06-05T05:45:36;8.90;;;3.42;;
52618;SDS011;38513;53.234;6.568;2023-06-05T05:48:04;7.03;;;2.90;;
52618;SDS011;38513;53.234;6.568;2023-06-05T05:50:30;5.10;;;2.50;;
52618;SDS011;38513;53.234;6.568;2023-06-05T05:52:56;7.25;;;3.10;;
52618;SDS011;38513;53.234;6.568;2023-06-05T05:55:23;7.40;;;2.50;;
52618;SDS011;38513;53.234;6.568;2023-06-05T05:57:50;6.70;;;2.60;;
52618;SDS011;38513;53.234;6.568;2023-06-05T06:00:18;6.00;;;2.33;;
52618;SDS011;38513;53.234;6.568;2023-06-05T06:02:45;5.63;;;2.50;;
52618;SDS011;38513;53.234;6.568;2023-06-05T06:05:12;5.18;;;2.33;;
52618;SDS011;38513;53.234;6.568;2023-06-05T06:07:38;8.35;;;2.60;;
52618;SDS011;38513;53.234;6.568;2023-06-05T06:10:07;6.20;;;2.67;;
52618;SDS011;38513;53.234;6.568;2023-06-05T06:12:35;9.95;;;2.78;;
52618;SDS011;38513;53.234;6.568;2023-06-05T06:15:02;7.55;;;2.58;;
52618;SDS011;38513;53.234;6.568;2023-06-05T06:17:29;7.93;;;3.10;;
52618;SDS011;38513;53.234;6.568;2023-06-05T06:19:56;7.43;;;2.90;;
52618;SDS011;38513;53.234;6.568;2023-06-05T06:22:22;6.20;;;2.40;;
52618;SDS011;38513;53.234;6.568;2023-06-05T06:24:48;6.57;;;2.40;;
52618;SDS011;38513;53.234;6.568;2023-06-05T06:27:15;5.30;;;2.42;;
52618;SDS011;38513;53.234;6.568;2023-06-05T06:29:49;6.15;;;2.33;;
52618;SDS011;38513;53.234;6.568;2023-06-05T06:32:19;5.72;;;2.40;;
52618;SDS011;38513;53.234;6.568;2023-06-05T06:34:47;6.50;;;2.60;;
52618;SDS011;38513;53.234;6.568;2023-06-05T06:37:14;5.85;;;2.60;;
52618;SDS011;38513;53.234;6.568;2023-06-05T06:39:44;5.82;;;2.65;;
52618;SDS011;38513;53.234;6.568;2023-06-05T06:42:11;6.72;;;2.70;;
52618;SDS011;38513;53.234;6.568;2023-06-05T06:44:38;5.75;;;2.67;;
52618;SDS011;38513;53.234;6.568;2023-06-05T06:47:05;6.10;;;2.40;;
52618;SDS011;38513;53.234;6.568;2023-06-05T06:49:33;6.45;;;3.10;;
52618;SDS011;38513;53.234;6.568;2023-06-05T06:52:00;7.07;;;3.10;;
52618;SDS011;38513;53.234;6.568;2023-06-05T06:54:27;9.63;;;3.10;;
52618;SDS011;38513;53.234;6.568;2023-06-05T06:56:57;6.87;;;2.97;;
52618;SDS011;38513;53.234;6.568;2023-06-05T06:59:23;12.45;;;3.30;;
52618;SDS011;38513;53.234;6.568;2023-06-05T07:04:43;6.05;;;2.63;;
52618;SDS011;38513;53.234;6.568;2023-06-05T07:07:10;5.72;;;2.60;;
52618;SDS011;38513;53.234;6.568;2023-06-05T07:09:37;5.10;;;2.70;;
52618;SDS011;38513;53.234;6.568;2023-06-05T07:12:04;6.35;;;2.80;;
52618;SDS011;38513;53.234;6.568;2023-06-05T07:14:31;6.55;;;2.83;;
52618;SDS011;38513;53.234;6.568;2023-06-05T07:16:58;6.30;;;2.65;;
52618;SDS011;38513;53.234;6.568;2023-06-05T07:19:29;6.15;;;2.67;;
52618;SDS011;38513;53.234;6.568;2023-06-05T07:21:58;6.00;;;2.67;;
52618;SDS011;38513;53.234;6.568;2023-06-05T07:24:25;9.98;;;3.45;;
52618;SDS011;38513;53.234;6.568;2023-06-05T07:26:53;8.37;;;3.00;;
52618;SDS011;38513;53.234;6.568;2023-06-05T07:29:20;5.50;;;2.40;;
52618;SDS011;38513;53.234;6.568;2023-06-05T07:31:47;7.30;;;2.90;;
52618;SDS011;38513;53.234;6.568;2023-06-05T07:34:14;6.82;;;2.47;;
52618;SDS011;38513;53.234;6.568;2023-06-05T07:36:44;6.30;;;2.40;;
52618;SDS011;38513;53.234;6.568;2023-06-05T07:39:11;7.38;;;2.72;;
52618;SDS011;38513;53.234;6.568;2023-06-05T07:41:37;5.97;;;2.63;;
52618;SDS011;38513;53.234;6.568;2023-06-05T07:44:05;5.15;;;2.38;;
52618;SDS011;38513;53.234;6.568;2023-06-05T07:46:32;7.82;;;4.85;;
52618;SDS011;38513;53.234;6.568;2023-06-05T07:48:58;5.60;;;2.63;;
52618;SDS011;38513;53.234;6.568;2023-06-05T07:51:24;6.07;;;2.87;;
52618;SDS011;38513;53.234;6.568;2023-06-05T07:53:53;5.38;;;2.30;;
52618;SDS011;38513;53.234;6.568;2023-06-05T07:56:20;5.93;;;2.58;;
52618;SDS011;38513;53.234;6.568;2023-06-05T07:58:49;5.68;;;2.35;;
52618;SDS011;38513;53.234;6.568;2023-06-05T08:01:16;6.30;;;2.60;;
52618;SDS011;38513;53.234;6.568;2023-06-05T08:03:43;6.22;;;2.90;;
52618;SDS011;38513;53.234;6.568;2023-06-05T08:06:09;5.53;;;2.50;;
52618;SDS011;38513;53.234;6.568;2023-06-05T08:08:35;5.68;;;2.83;;
52618;SDS011;38513;53.234;6.568;2023-06-05T08:11:02;7.10;;;3.00;;
52618;SDS011;38513;53.234;6.568;2023-06-05T08:13:28;6.28;;;2.70;;
52618;SDS011;38513;53.234;6.568;2023-06-05T08:15:57;7.55;;;2.78;;
52618;SDS011;38513;53.234;6.568;2023-06-05T08:18:23;9.57;;;3.17;;
52618;SDS011;38513;53.234;6.568;2023-06-05T08:20:49;6.72;;;2.90;;
52618;SDS011;38513;53.234;6.568;2023-06-05T08:23:16;6.32;;;3.13;;
52618;SDS011;38513;53.234;6.568;2023-06-05T08:25:42;7.13;;;3.33;;
52618;SDS011;38513;53.234;6.568;2023-06-05T08:28:08;6.00;;;3.30;;
52618;SDS011;38513;53.234;6.568;2023-06-05T08:30:34;6.07;;;2.80;;
52618;SDS011;38513;53.234;6.568;2023-06-05T08:33:00;5.53;;;2.78;;
52618;SDS011;38513;53.234;6.568;2023-06-05T08:35:26;7.53;;;3.25;;
52618;SDS011;38513;53.234;6.568;2023-06-05T08:37:53;6.45;;;2.88;;
52618;SDS011;38513;53.234;6.568;2023-06-05T08:40:19;6.75;;;2.88;;
52618;SDS011;38513;53.234;6.568;2023-06-05T08:42:45;6.30;;;2.63;;
52618;SDS011;38513;53.234;6.568;2023-06-05T08:45:11;5.88;;;2.90;;
52618;SDS011;38513;53.234;6.568;2023-06-05T08:47:38;5.83;;;3.13;;
52618;SDS011;38513;53.234;6.568;2023-06-05T08:50:07;6.18;;;2.80;;
52618;SDS011;38513;53.234;6.568;2023-06-05T08:52:34;5.77;;;2.87;;
52618;SDS011;38513;53.234;6.568;2023-06-05T08:55:01;5.63;;;2.83;;
52618;SDS011;38513;53.234;6.568;2023-06-05T08:57:28;5.95;;;3.45;;
52618;SDS011;38513;53.234;6.568;2023-06-05T08:59:54;5.53;;;3.37;;
52618;SDS011;38513;53.234;6.568;2023-06-05T09:02:21;6.78;;;3.60;;
52618;SDS011;38513;53.234;6.568;2023-06-05T09:04:47;6.05;;;3.50;;
52618;SDS011;38513;53.234;6.568;2023-06-05T09:07:16;8.10;;;4.00;;
52618;SDS011;38513;53.234;6.568;2023-06-05T09:09:43;7.82;;;4.15;;
52618;SDS011;38513;53.234;6.568;2023-06-05T09:12:12;6.50;;;4.30;;
52618;SDS011;38513;53.234;6.568;2023-06-05T09:14:41;7.85;;;3.85;;
52618;SDS011;38513;53.234;6.568;2023-06-05T09:17:11;6.00;;;3.90;;
52618;SDS011;38513;53.234;6.568;2023-06-05T09:19:38;8.00;;;4.45;;
52618;SDS011;38513;53.234;6.568;2023-06-05T09:22:10;7.15;;;4.00;;
52618;SDS011;38513;53.234;6.568;2023-06-05T09:24:43;6.30;;;3.72;;
52618;SDS011;38513;53.234;6.568;2023-06-05T09:27:11;6.05;;;3.55;;
52618;SDS011;38513;53.234;6.568;2023-06-05T09:29:42;6.55;;;3.53;;
52618;SDS011;38513;53.234;6.568;2023-06-05T09:34:40;6.47;;;3.40;;
52618;SDS011;38513;53.234;6.568;2023-06-05T09:37:07;7.40;;;3.72;;
52618;SDS011;38513;53.234;6.568;2023-06-05T09:39:34;6.50;;;3.97;;
52618;SDS011;38513;53.234;6.568;2023-06-05T09:42:01;5.90;;;3.10;;
52618;SDS011;38513;53.234;6.568;2023-06-05T09:44:28;5.80;;;3.00;;
52618;SDS011;38513;53.234;6.568;2023-06-05T09:50:08;6.95;;;3.40;;
52618;SDS011;38513;53.234;6.568;2023-06-05T09:52:13;6.13;;;3.50;;
52618;SDS011;38513;53.234;6.568;2023-06-05T09:54:43;5.85;;;3.10;;
52618;SDS011;38513;53.234;6.568;2023-06-05T09:57:11;6.70;;;3.20;;
52618;SDS011;38513;53.234;6.568;2023-06-05T10:02:10;6.57;;;2.85;;
52618;SDS011;38513;53.234;6.568;2023-06-05T10:07:40;6.22;;;3.05;;
52618;SDS011;38513;53.234;6.568;2023-06-05T10:10:08;5.87;;;2.93;;
52618;SDS011;38513;53.234;6.568;2023-06-05T10:12:35;7.03;;;3.30;;
52618;SDS011;38513;53.234;6.568;2023-06-05T10:15:01;6.63;;;3.28;;
52618;SDS011;38513;53.234;6.568;2023-06-05T10:17:28;5.90;;;2.85;;
52618;SDS011;38513;53.234;6.568;2023-06-05T10:19:54;5.40;;;3.00;;
52618;SDS011;38513;53.234;6.568;2023-06-05T10:22:21;5.38;;;2.65;;
52618;SDS011;38513;53.234;6.568;2023-06-05T10:24:51;5.57;;;2.78;;
52618;SDS011;38513;53.234;6.568;2023-06-05T10:37:56;6.70;;;2.60;;
52618;SDS011;38513;53.234;6.568;2023-06-05T10:40:25;4.90;;;2.20;;
52618;SDS011;38513;53.234;6.568;2023-06-05T10:42:51;5.50;;;2.58;;
52618;SDS011;38513;53.234;6.568;2023-06-05T10:45:30;5.30;;;2.70;;
52618;SDS011;38513;53.234;6.568;2023-06-05T10:47:57;4.80;;;2.10;;
52618;SDS011;38513;53.234;6.568;2023-06-05T10:50:27;5.43;;;2.60;;
52618;SDS011;38513;53.234;6.568;2023-06-05T10:52:56;4.88;;;2.40;;
52618;SDS011;38513;53.234;6.568;2023-06-05T10:55:23;7.28;;;2.60;;
52618;SDS011;38513;53.234;6.568;2023-06-05T11:00:23;7.05;;;2.80;;
52618;SDS011;38513;53.234;6.568;2023-06-05T11:02:49;4.97;;;2.22;;
52618;SDS011;38513;53.234;6.568;2023-06-05T11:05:16;5.30;;;2.40;;
52618;SDS011;38513;53.234;6.568;2023-06-05T11:07:45;7.78;;;2.63;;
52618;SDS011;38513;53.234;6.568;2023-06-05T11:10:16;5.55;;;2.60;;
52618;SDS011;38513;53.234;6.568;2023-06-05T11:15:12;5.47;;;2.40;;
52618;SDS011;38513;53.234;6.568;2023-06-05T11:17:39;5.47;;;2.70;;
52618;SDS011;38513;53.234;6.568;2023-06-05T11:32:39;5.38;;;2.40;;
52618;SDS011;38513;53.234;6.568;2023-06-05T11:35:05;6.53;;;3.10;;
52618;SDS011;38513;53.234;6.568;2023-06-05T11:37:33;6.20;;;2.90;;
52618;SDS011;38513;53.234;6.568;2023-06-05T11:40:03;5.60;;;2.80;;
52618;SDS011;38513;53.234;6.568;2023-06-05T11:42:38;5.07;;;2.60;;
52618;SDS011;38513;53.234;6.568;2023-06-05T11:45:14;7.88;;;2.95;;
52618;SDS011;38513;53.234;6.568;2023-06-05T11:47:43;6.03;;;3.08;;
52618;SDS011;38513;53.234;6.568;2023-06-05T11:50:12;6.50;;;3.13;;
52618;SDS011;38513;53.234;6.568;2023-06-05T11:52:39;7.60;;;2.90;;
52618;SDS011;38513;53.234;6.568;2023-06-05T11:55:18;5.75;;;2.75;;
52618;SDS011;38513;53.234;6.568;2023-06-05T11:57:47;5.50;;;2.65;;
52618;SDS011;38513;53.234;6.568;2023-06-05T12:00:14;6.38;;;2.90;;
52618;SDS011;38513;53.234;6.568;2023-06-05T12:02:42;7.45;;;3.63;;
52618;SDS011;38513;53.234;6.568;2023-06-05T12:05:09;6.53;;;3.45;;
52618;SDS011;38513;53.234;6.568;2023-06-05T12:07:35;6.88;;;2.75;;
52618;SDS011;38513;53.234;6.568;2023-06-05T12:10:08;5.95;;;2.50;;
52618;SDS011;38513;53.234;6.568;2023-06-05T12:12:53;5.25;;;2.72;;
52618;SDS011;38513;53.234;6.568;2023-06-05T12:15:20;5.97;;;2.85;;
52618;SDS011;38513;53.234;6.568;2023-06-05T12:17:53;5.70;;;2.53;;
52618;SDS011;38513;53.234;6.568;2023-06-05T12:20:19;8.32;;;2.70;;
52618;SDS011;38513;53.234;6.568;2023-06-05T12:22:46;5.90;;;2.65;;
52618;SDS011;38513;53.234;6.568;2023-06-05T12:25:18;8.13;;;3.40;;
52618;SDS011;38513;53.234;6.568;2023-06-05T12:27:44;6.68;;;3.35;;
52618;SDS011;38513;53.234;6.568;2023-06-05T12:30:11;7.07;;;3.42;;
52618;SDS011;38513;53.234;6.568;2023-06-05T12:32:37;7.40;;;3.42;;
52618;SDS011;38513;53.234;6.568;2023-06-05T12:35:04;5.73;;;3.10;;
52618;SDS011;38513;53.234;6.568;2023-06-05T12:37:34;6.18;;;3.17;;
52618;SDS011;38513;53.234;6.568;2023-06-05T12:40:12;7.72;;;4.00;;
52618;SDS011;38513;53.234;6.568;2023-06-05T12:42:39;6.95;;;3.90;;
52618;SDS011;38513;53.234;6.568;2023-06-05T12:45:06;8.10;;;4.30;;
52618;SDS011;38513;53.234;6.568;2023-06-05T12:47:33;8.20;;;4.40;;
52618;SDS011;38513;53.234;6.568;2023-06-05T12:49:59;6.82;;;3.83;;
52618;SDS011;38513;53.234;6.568;2023-06-05T12:52:25;9.25;;;4.82;;
52618;SDS011;38513;53.234;6.568;2023-06-05T12:54:52;9.27;;;4.45;;
52618;SDS011;38513;53.234;6.568;2023-06-05T12:57:18;7.05;;;3.90;;
52618;SDS011;38513;53.234;6.568;2023-06-05T12:59:47;8.13;;;4.20;;
52618;SDS011;38513;53.234;6.568;2023-06-05T13:02:14;8.77;;;5.28;;
52618;SDS011;38513;53.234;6.568;2023-06-05T13:04:43;8.35;;;4.10;;
52618;SDS011;38513;53.234;6.568;2023-06-05T13:07:09;8.98;;;3.83;;
52618;SDS011;38513;53.234;6.568;2023-06-05T13:09:36;8.15;;;3.80;;
52618;SDS011;38513;53.234;6.568;2023-06-05T13:12:02;8.52;;;4.10;;
52618;SDS011;38513;53.234;6.568;2023-06-05T13:14:32;8.20;;;4.90;;
52618;SDS011;38513;53.234;6.568;2023-06-05T13:16:58;11.73;;;4.90;;
52618;SDS011;38513;53.234;6.568;2023-06-05T13:19:24;8.68;;;5.38;;
52618;SDS011;38513;53.234;6.568;2023-06-05T13:21:51;8.80;;;4.75;;
52618;SDS011;38513;53.234;6.568;2023-06-05T13:24:17;8.35;;;5.00;;
52618;SDS011;38513;53.234;6.568;2023-06-05T13:26:47;8.68;;;5.25;;
52618;SDS011;38513;53.234;6.568;2023-06-05T13:29:13;8.88;;;5.10;;
52618;SDS011;38513;53.234;6.568;2023-06-05T13:31:40;7.47;;;4.63;;
52618;SDS011;38513;53.234;6.568;2023-06-05T13:34:06;10.27;;;5.03;;
52618;SDS011;38513;53.234;6.568;2023-06-05T13:36:32;10.55;;;5.40;;
52618;SDS011;38513;53.234;6.568;2023-06-05T13:38:59;8.40;;;4.45;;
52618;SDS011;38513;53.234;6.568;2023-06-05T13:41:25;8.45;;;4.90;;
52618;SDS011;38513;53.234;6.568;2023-06-05T13:43:52;8.53;;;5.77;;
52618;SDS011;38513;53.234;6.568;2023-06-05T13:46:18;10.25;;;6.10;;
52618;SDS011;38513;53.234;6.568;2023-06-05T13:48:44;8.63;;;4.72;;
52618;SDS011;38513;53.234;6.568;2023-06-05T13:51:12;10.00;;;5.30;;
52618;SDS011;38513;53.234;6.568;2023-06-05T13:53:41;8.48;;;5.13;;
52618;SDS011;38513;53.234;6.568;2023-06-05T13:56:07;9.85;;;6.05;;
52618;SDS011;38513;53.234;6.568;2023-06-05T13:58:33;10.00;;;6.40;;
52618;SDS011;38513;53.234;6.568;2023-06-05T14:01:00;8.93;;;5.80;;
52618;SDS011;38513;53.234;6.568;2023-06-05T14:03:26;9.77;;;5.80;;
52618;SDS011;38513;53.234;6.568;2023-06-05T14:05:53;9.68;;;6.00;;
52618;SDS011;38513;53.234;6.568;2023-06-05T14:08:19;10.27;;;5.60;;
52618;SDS011;38513;53.234;6.568;2023-06-05T14:10:46;10.63;;;6.30;;
52618;SDS011;38513;53.234;6.568;2023-06-05T14:13:12;10.60;;;6.10;;
52618;SDS011;38513;53.234;6.568;2023-06-05T14:15:39;10.25;;;5.82;;
52618;SDS011;38513;53.234;6.568;2023-06-05T14:18:05;10.13;;;5.50;;
52618;SDS011;38513;53.234;6.568;2023-06-05T14:20:32;8.85;;;5.53;;
52618;SDS011;38513;53.234;6.568;2023-06-05T14:22:58;9.73;;;5.43;;
52618;SDS011;38513;53.234;6.568;2023-06-05T14:25:25;9.90;;;5.70;;
52618;SDS011;38513;53.234;6.568;2023-06-05T14:27:55;10.48;;;5.57;;
52618;SDS011;38513;53.234;6.568;2023-06-05T14:30:24;9.50;;;5.65;;
52618;SDS011;38513;53.234;6.568;2023-06-05T14:32:54;10.88;;;6.53;;
52618;SDS011;38513;53.234;6.568;2023-06-05T14:35:20;8.93;;;5.65;;
52618;SDS011;38513;53.234;6.568;2023-06-05T14:37:47;10.35;;;5.93;;
52618;SDS011;38513;53.234;6.568;2023-06-05T14:40:13;9.95;;;6.18;;
52618;SDS011;38513;53.234;6.568;2023-06-05T14:42:40;9.70;;;6.70;;
52618;SDS011;38513;53.234;6.568;2023-06-05T14:45:06;9.95;;;6.60;;
52618;SDS011;38513;53.234;6.568;2023-06-05T14:47:35;9.63;;;6.35;;
52618;SDS011;38513;53.234;6.568;2023-06-05T14:50:02;11.10;;;6.22;;
52618;SDS011;38513;53.234;6.568;2023-06-05T14:52:28;10.18;;;6.22;;
52618;SDS011;38513;53.234;6.568;2023-06-05T14:54:54;11.82;;;6.60;;
52618;SDS011;38513;53.234;6.568;2023-06-05T14:57:20;9.95;;;6.18;;
52618;SDS011;38513;53.234;6.568;2023-06-05T14:59:46;12.02;;;6.85;;
52618;SDS011;38513;53.234;6.568;2023-06-05T15:02:12;12.18;;;7.40;;
52618;SDS011;38513;53.234;6.568;2023-06-05T15:04:38;11.18;;;6.93;;
52618;SDS011;38513;53.234;6.568;2023-06-05T15:07:04;12.40;;;8.00;;
52618;SDS011;38513;53.234;6.568;2023-06-05T15:09:31;12.40;;;7.30;;
52618;SDS011;38513;53.234;6.568;2023-06-05T15:11:57;10.85;;;6.55;;
52618;SDS011;38513;53.234;6.568;2023-06-05T15:14:25;10.48;;;6.15;;
52618;SDS011;38513;53.234;6.568;2023-06-05T15:16:51;11.80;;;7.28;;
52618;SDS011;38513;53.234;6.568;2023-06-05T15:19:17;11.45;;;7.13;;
52618;SDS011;38513;53.234;6.568;2023-06-05T15:21:43;12.70;;;7.60;;
52618;SDS011;38513;53.234;6.568;2023-06-05T15:24:09;11.47;;;7.40;;
52618;SDS011;38513;53.234;6.568;2023-06-05T15:26:35;10.23;;;6.68;;
52618;SDS011;38513;53.234;6.568;2023-06-05T15:29:01;10.97;;;6.50;;
52618;SDS011;38513;53.234;6.568;2023-06-05T15:31:31;11.32;;;7.03;;
52618;SDS011;38513;53.234;6.568;2023-06-05T15:33:57;9.60;;;6.47;;